sensor_id;sensor_type;location;lat;lon;timestamp;P1;durP1;ratioP1;P2;durP2;ratioP2
1589;SDS011;788;48.720;9.158;2022-10-26T00:32:54;4.27;;;3.93;;
1589;SDS011;788;48.720;9.158;2022-10-26T00:35:21;5.93;;;4.43;;
1589;SDS011;788;48.720;9.158;2022-10-26T00:37:52;5.37;;;4.50;;
1589;SDS011;788;48.720;9.158;2022-10-26T00:40:20;5.50;;;4.60;;
1589;SDS011;788;48.720;9.158;2022-10-26T00:42:49;5.23;;;4.83;;
1589;SDS011;788;48.720;9.158;2022-10-26T00:45:20;4.57;;;4.00;;
1589;SDS011;788;48.720;9.158;2022-10-26T00:47:51;4.70;;;3.90;;
1589;SDS011;788;48.720;9.158;2022-10-26T00:50:23;5.63;;;4.70;;
1589;SDS011;788;48.720;9.158;2022-10-26T00:52:54;4.63;;;4.20;;
1589;SDS011;788;48.720;9.158;2022-10-26T00:55:24;4.27;;;3.93;;
1589;SDS011;788;48.720;9.158;2022-10-26T00:57:54;5.00;;;4.70;;
1589;SDS011;788;48.720;9.158;2022-10-26T01:00:22;4.60;;;4.27;;
1589;SDS011;788;48.720;9.158;2022-10-26T01:02:56;4.27;;;3.97;;
1589;SDS011;788;48.720;9.158;2022-10-26T01:05:28;4.60;;;4.10;;
1589;SDS011;788;48.720;9.158;2022-10-26T01:08:00;7.60;;;4.70;;
1589;SDS011;788;48.720;9.158;2022-10-26T01:10:28;7.23;;;4.03;;
1589;SDS011;788;48.720;9.158;2022-10-26T01:12:56;7.30;;;3.67;;
1589;SDS011;788;48.720;9.158;2022-10-26T01:15:27;3.87;;;3.57;;
1589;SDS011;788;48.720;9.158;2022-10-26T01:18:02;5.77;;;4.10;;
1589;SDS011;788;48.720;9.158;2022-10-26T01:20:44;3.23;;;2.63;;
1589;SDS011;788;48.720;9.158;2022-10-26T01:23:41;3.90;;;3.70;;
1589;SDS011;788;48.720;9.158;2022-10-26T01:26:31;3.50;;;3.20;;
1589;SDS011;788;48.720;9.158;2022-10-26T01:29:13;3.40;;;2.83;;
1589;SDS011;788;48.720;9.158;2022-10-26T01:32:03;3.27;;;2.67;;
1589;SDS011;788;48.720;9.158;2022-10-26T01:34:37;4.40;;;4.10;;
1589;SDS011;788;48.720;9.158;2022-10-26T01:37:11;2.77;;;2.57;;
1589;SDS011;788;48.720;9.158;2022-10-26T01:39:40;5.67;;;4.20;;
1589;SDS011;788;48.720;9.158;2022-10-26T01:42:14;2.73;;;2.50;;
1589;SDS011;788;48.720;9.158;2022-10-26T01:44:53;3.57;;;3.20;;
1589;SDS011;788;48.720;9.158;2022-10-26T01:47:26;7.73;;;3.10;;
1589;SDS011;788;48.720;9.158;2022-10-26T01:49:55;3.10;;;2.90;;
1589;SDS011;788;48.720;9.158;2022-10-26T01:52:24;3.67;;;3.37;;
1589;SDS011;788;48.720;9.158;2022-10-26T01:54:58;6.20;;;4.30;;
1589;SDS011;788;48.720;9.158;2022-10-26T01:57:27;3.67;;;3.33;;
1589;SDS011;788;48.720;9.158;2022-10-26T02:00:05;5.83;;;2.90;;
1589;SDS011;788;48.720;9.158;2022-10-26T02:02:39;3.63;;;3.00;;
1589;SDS011;788;48.720;9.158;2022-10-26T02:05:22;2.93;;;2.73;;
1589;SDS011;788;48.720;9.158;2022-10-26T02:07:58;3.50;;;3.20;;
1589;SDS011;788;48.720;9.158;2022-10-26T02:10:39;2.80;;;2.50;;
1589;SDS011;788;48.720;9.158;2022-10-26T02:13:13;4.00;;;3.23;;
1589;SDS011;788;48.720;9.158;2022-10-26T02:15:47;3.73;;;3.10;;
1589;SDS011;788;48.720;9.158;2022-10-26T02:18:22;3.37;;;3.07;;
1589;SDS011;788;48.720;9.158;2022-10-26T02:20:54;4.07;;;3.33;;
1589;SDS011;788;48.720;9.158;2022-10-26T02:23:24;2.77;;;2.67;;
1589;SDS011;788;48.720;9.158;2022-10-26T02:25:54;4.10;;;3.67;;
1589;SDS011;788;48.720;9.158;2022-10-26T02:28:24;4.60;;;3.43;;
1589;SDS011;788;48.720;9.158;2022-10-26T02:30:55;3.87;;;3.33;;
1589;SDS011;788;48.720;9.158;2022-10-26T02:33:27;4.23;;;3.83;;
1589;SDS011;788;48.720;9.158;2022-10-26T02:35:59;3.90;;;3.37;;
1589;SDS011;788;48.720;9.158;2022-10-26T02:38:28;3.40;;;3.20;;
1589;SDS011;788;48.720;9.158;2022-10-26T02:40:58;3.30;;;2.90;;
1589;SDS011;788;48.720;9.158;2022-10-26T02:43:26;4.03;;;2.93;;
1589;SDS011;788;48.720;9.158;2022-10-26T02:45:55;5.07;;;3.53;;
1589;SDS011;788;48.720;9.158;2022-10-26T02:48:28;4.37;;;4.17;;
1589;SDS011;788;48.720;9.158;2022-10-26T02:50:56;3.13;;;2.83;;
1589;SDS011;788;48.720;9.158;2022-10-26T02:53:27;5.37;;;4.87;;
1589;SDS011;788;48.720;9.158;2022-10-26T02:55:57;4.17;;;3.77;;
1589;SDS011;788;48.720;9.158;2022-10-26T02:58:29;7.80;;;3.70;;
1589;SDS011;788;48.720;9.158;2022-10-26T03:00:58;7.47;;;6.23;;
1589;SDS011;788;48.720;9.158;2022-10-26T03:03:27;4.87;;;3.57;;
1589;SDS011;788;48.720;9.158;2022-10-26T03:05:54;4.00;;;3.60;;
1589;SDS011;788;48.720;9.158;2022-10-26T03:08:22;4.50;;;3.60;;
1589;SDS011;788;48.720;9.158;2022-10-26T03:10:49;5.47;;;3.70;;
1589;SDS011;788;48.720;9.158;2022-10-26T03:13:16;4.73;;;3.70;;
1589;SDS011;788;48.720;9.158;2022-10-26T03:15:43;6.73;;;4.10;;
1589;SDS011;788;48.720;9.158;2022-10-26T03:18:10;4.20;;;3.07;;
1589;SDS011;788;48.720;9.158;2022-10-26T03:20:39;3.83;;;3.07;;
1589;SDS011;788;48.720;9.158;2022-10-26T03:23:08;3.47;;;2.70;;
1589;SDS011;788;48.720;9.158;2022-10-26T03:25:36;4.03;;;2.97;;
1589;SDS011;788;48.720;9.158;2022-10-26T03:28:03;4.50;;;3.23;;
1589;SDS011;788;48.720;9.158;2022-10-26T03:30:31;5.70;;;2.93;;
1589;SDS011;788;48.720;9.158;2022-10-26T03:32:58;2.93;;;2.73;;
1589;SDS011;788;48.720;9.158;2022-10-26T03:35:25;7.77;;;3.00;;
1589;SDS011;788;48.720;9.158;2022-10-26T03:37:53;6.23;;;2.87;;
1589;SDS011;788;48.720;9.158;2022-10-26T03:40:20;3.03;;;2.83;;
1589;SDS011;788;48.720;9.158;2022-10-26T03:42:47;3.60;;;2.90;;
1589;SDS011;788;48.720;9.158;2022-10-26T03:45:13;6.13;;;2.57;;
1589;SDS011;788;48.720;9.158;2022-10-26T03:47:43;3.00;;;2.80;;
1589;SDS011;788;48.720;9.158;2022-10-26T03:50:11;3.00;;;2.33;;
1589;SDS011;788;48.720;9.158;2022-10-26T03:52:39;2.50;;;2.40;;
1589;SDS011;788;48.720;9.158;2022-10-26T03:55:08;4.97;;;3.27;;
1589;SDS011;788;48.720;9.158;2022-10-26T03:57:38;3.40;;;3.07;;
1589;SDS011;788;48.720;9.158;2022-10-26T04:00:07;3.03;;;2.83;;
1589;SDS011;788;48.720;9.158;2022-10-26T04:02:34;3.90;;;3.50;;
1589;SDS011;788;48.720;9.158;2022-10-26T04:05:01;2.60;;;2.40;;
1589;SDS011;788;48.720;9.158;2022-10-26T04:07:29;2.80;;;2.60;;
1589;SDS011;788;48.720;9.158;2022-10-26T04:09:55;3.43;;;3.13;;
1589;SDS011;788;48.720;9.158;2022-10-26T04:12:23;3.17;;;2.80;;
1589;SDS011;788;48.720;9.158;2022-10-26T04:14:50;5.03;;;3.97;;
1589;SDS011;788;48.720;9.158;2022-10-26T04:17:17;3.40;;;3.03;;
1589;SDS011;788;48.720;9.158;2022-10-26T04:19:44;2.63;;;2.53;;
1589;SDS011;788;48.720;9.158;2022-10-26T04:22:11;3.60;;;2.60;;
1589;SDS011;788;48.720;9.158;2022-10-26T04:24:37;2.53;;;2.40;;
1589;SDS011;788;48.720;9.158;2022-10-26T04:27:04;3.23;;;2.90;;
1589;SDS011;788;48.720;9.158;2022-10-26T04:29:32;3.10;;;2.90;;
1589;SDS011;788;48.720;9.158;2022-10-26T04:31:59;3.57;;;3.27;;
1589;SDS011;788;48.720;9.158;2022-10-26T04:34:25;3.00;;;2.80;;
1589;SDS011;788;48.720;9.158;2022-10-26T04:36:53;3.93;;;3.00;;
1589;SDS011;788;48.720;9.158;2022-10-26T04:39:20;4.77;;;3.10;;
1589;SDS011;788;48.720;9.158;2022-10-26T04:41:47;3.17;;;2.83;;
1589;SDS011;788;48.720;9.158;2022-10-26T04:44:14;2.73;;;2.53;;
1589;SDS011;788;48.720;9.158;2022-10-26T04:46:42;6.40;;;3.03;;
1589;SDS011;788;48.720;9.158;2022-10-26T04:49:09;3.93;;;3.53;;
1589;SDS011;788;48.720;9.158;2022-10-26T04:51:35;4.67;;;3.00;;
1589;SDS011;788;48.720;9.158;2022-10-26T04:54:02;3.53;;;3.23;;
1589;SDS011;788;48.720;9.158;2022-10-26T04:56:29;2.93;;;2.73;;
1589;SDS011;788;48.720;9.158;2022-10-26T04:58:58;3.60;;;3.30;;
1589;SDS011;788;48.720;9.158;2022-10-26T05:01:24;4.77;;;3.10;;
1589;SDS011;788;48.720;9.158;2022-10-26T05:03:53;3.43;;;2.93;;
1589;SDS011;788;48.720;9.158;2022-10-26T05:06:20;5.03;;;3.63;;
1589;SDS011;788;48.720;9.158;2022-10-26T05:08:47;3.50;;;3.30;;
1589;SDS011;788;48.720;9.158;2022-10-26T05:11:14;4.10;;;3.00;;
1589;SDS011;788;48.720;9.158;2022-10-26T05:13:41;3.30;;;3.10;;
1589;SDS011;788;48.720;9.158;2022-10-26T05:16:08;3.10;;;2.47;;
1589;SDS011;788;48.720;9.158;2022-10-26T05:18:34;5.33;;;3.40;;
1589;SDS011;788;48.720;9.158;2022-10-26T05:21:02;3.60;;;2.53;;
1589;SDS011;788;48.720;9.158;2022-10-26T05:23:29;3.73;;;2.73;;
1589;SDS011;788;48.720;9.158;2022-10-26T05:25:56;2.70;;;2.50;;
1589;SDS011;788;48.720;9.158;2022-10-26T05:28:23;3.50;;;2.57;;
1589;SDS011;788;48.720;9.158;2022-10-26T05:30:50;3.00;;;2.80;;
1589;SDS011;788;48.720;9.158;2022-10-26T05:33:16;3.90;;;3.57;;
1589;SDS011;788;48.720;9.158;2022-10-26T05:35:43;2.60;;;2.43;;
1589;SDS011;788;48.720;9.158;2022-10-26T05:38:12;3.33;;;2.40;;
1589;SDS011;788;48.720;9.158;2022-10-26T05:40:50;4.33;;;2.33;;
1589;SDS011;788;48.720;9.158;2022-10-26T05:43:18;3.10;;;2.80;;
1589;SDS011;788;48.720;9.158;2022-10-26T05:45:46;3.00;;;2.80;;
1589;SDS011;788;48.720;9.158;2022-10-26T05:48:15;4.63;;;2.80;;
1589;SDS011;788;48.720;9.158;2022-10-26T05:50:43;3.37;;;2.73;;
1589;SDS011;788;48.720;9.158;2022-10-26T05:53:10;2.00;;;1.90;;
1589;SDS011;788;48.720;9.158;2022-10-26T05:58:25;3.37;;;2.13;;
1589;SDS011;788;48.720;9.158;2022-10-26T06:00:59;3.17;;;2.87;;
1589;SDS011;788;48.720;9.158;2022-10-26T06:06:38;2.57;;;2.37;;
1589;SDS011;788;48.720;9.158;2022-10-26T06:13:11;2.30;;;2.10;;
1589;SDS011;788;48.720;9.158;2022-10-26T06:22:50;3.50;;;2.47;;
1589;SDS011;788;48.720;9.158;2022-10-26T06:47:17;2.60;;;2.40;;
1589;SDS011;788;48.720;9.158;2022-10-26T06:49:57;2.60;;;2.40;;
1589;SDS011;788;48.720;9.158;2022-10-26T06:52:59;2.43;;;2.23;;
1589;SDS011;788;48.720;9.158;2022-10-26T06:55:42;2.37;;;2.17;;
1589;SDS011;788;48.720;9.158;2022-10-26T06:58:15;3.10;;;2.33;;
1589;SDS011;788;48.720;9.158;2022-10-26T07:00:47;5.13;;;2.90;;
1589;SDS011;788;48.720;9.158;2022-10-26T07:03:16;3.23;;;2.93;;
1589;SDS011;788;48.720;9.158;2022-10-26T07:05:43;2.50;;;2.30;;
1589;SDS011;788;48.720;9.158;2022-10-26T07:08:11;2.33;;;2.13;;
1589;SDS011;788;48.720;9.158;2022-10-26T07:10:38;2.33;;;2.13;;
1589;SDS011;788;48.720;9.158;2022-10-26T07:13:06;2.80;;;2.43;;
1589;SDS011;788;48.720;9.158;2022-10-26T07:15:34;2.67;;;2.47;;
1589;SDS011;788;48.720;9.158;2022-10-26T07:18:03;6.40;;;3.20;;
1589;SDS011;788;48.720;9.158;2022-10-26T07:20:34;4.63;;;2.37;;
1589;SDS011;788;48.720;9.158;2022-10-26T07:23:01;2.33;;;2.13;;
1589;SDS011;788;48.720;9.158;2022-10-26T07:25:31;2.50;;;1.97;;
1589;SDS011;788;48.720;9.158;2022-10-26T07:27:59;2.43;;;2.20;;
1589;SDS011;788;48.720;9.158;2022-10-26T07:30:27;6.47;;;3.10;;
1589;SDS011;788;48.720;9.158;2022-10-26T07:32:58;2.10;;;1.90;;
1589;SDS011;788;48.720;9.158;2022-10-26T07:35:27;3.00;;;2.73;;
1589;SDS011;788;48.720;9.158;2022-10-26T07:37:57;2.47;;;2.33;;
1589;SDS011;788;48.720;9.158;2022-10-26T07:40:24;7.13;;;3.20;;
1589;SDS011;788;48.720;9.158;2022-10-26T07:42:54;3.60;;;2.50;;
1589;SDS011;788;48.720;9.158;2022-10-26T07:45:22;8.17;;;3.67;;
1589;SDS011;788;48.720;9.158;2022-10-26T07:47:49;4.37;;;2.93;;
1589;SDS011;788;48.720;9.158;2022-10-26T07:50:17;2.77;;;2.57;;
1589;SDS011;788;48.720;9.158;2022-10-26T07:52:46;4.80;;;3.27;;
1589;SDS011;788;48.720;9.158;2022-10-26T07:55:14;2.90;;;2.50;;
1589;SDS011;788;48.720;9.158;2022-10-26T07:57:43;4.90;;;2.80;;
1589;SDS011;788;48.720;9.158;2022-10-26T08:00:10;6.30;;;3.07;;
1589;SDS011;788;48.720;9.158;2022-10-26T08:02:37;4.80;;;2.90;;
1589;SDS011;788;48.720;9.158;2022-10-26T08:05:04;4.17;;;2.90;;
1589;SDS011;788;48.720;9.158;2022-10-26T08:07:32;2.60;;;2.40;;
1589;SDS011;788;48.720;9.158;2022-10-26T08:10:00;3.13;;;2.87;;
1589;SDS011;788;48.720;9.158;2022-10-26T08:12:28;4.00;;;3.00;;
1589;SDS011;788;48.720;9.158;2022-10-26T08:14:56;3.03;;;2.40;;
1589;SDS011;788;48.720;9.158;2022-10-26T08:17:24;3.87;;;3.47;;
1589;SDS011;788;48.720;9.158;2022-10-26T08:19:51;3.20;;;2.90;;
1589;SDS011;788;48.720;9.158;2022-10-26T08:22:17;3.03;;;2.83;;
1589;SDS011;788;48.720;9.158;2022-10-26T08:24:44;2.70;;;2.50;;
1589;SDS011;788;48.720;9.158;2022-10-26T08:27:13;4.40;;;2.63;;
1589;SDS011;788;48.720;9.158;2022-10-26T08:29:41;5.00;;;3.30;;
1589;SDS011;788;48.720;9.158;2022-10-26T08:32:08;5.40;;;3.40;;
1589;SDS011;788;48.720;9.158;2022-10-26T08:34:35;3.97;;;3.20;;
1589;SDS011;788;48.720;9.158;2022-10-26T08:37:02;5.13;;;3.27;;
1589;SDS011;788;48.720;9.158;2022-10-26T08:39:28;2.97;;;2.70;;
1589;SDS011;788;48.720;9.158;2022-10-26T08:41:56;3.77;;;3.47;;
1589;SDS011;788;48.720;9.158;2022-10-26T08:44:32;5.07;;;3.10;;
1589;SDS011;788;48.720;9.158;2022-10-26T08:47:05;2.80;;;2.60;;
1589;SDS011;788;48.720;9.158;2022-10-26T08:49:39;2.67;;;2.40;;
1589;SDS011;788;48.720;9.158;2022-10-26T08:52:10;4.10;;;2.57;;
1589;SDS011;788;48.720;9.158;2022-10-26T08:54:43;3.10;;;2.80;;
1589;SDS011;788;48.720;9.158;2022-10-26T08:57:15;3.80;;;3.50;;
1589;SDS011;788;48.720;9.158;2022-10-26T08:59:49;5.33;;;3.43;;
1589;SDS011;788;48.720;9.158;2022-10-26T09:02:21;4.10;;;3.70;;
1589;SDS011;788;48.720;9.158;2022-10-26T09:04:49;3.37;;;3.07;;
1589;SDS011;788;48.720;9.158;2022-10-26T09:07:24;5.23;;;3.40;;
1589;SDS011;788;48.720;9.158;2022-10-26T09:10:17;3.70;;;3.00;;
1589;SDS011;788;48.720;9.158;2022-10-26T09:12:53;3.43;;;2.87;;
1589;SDS011;788;48.720;9.158;2022-10-26T09:15:30;3.20;;;2.70;;
1589;SDS011;788;48.720;9.158;2022-10-26T09:18:10;5.47;;;2.97;;
1589;SDS011;788;48.720;9.158;2022-10-26T09:20:48;2.90;;;2.60;;
1589;SDS011;788;48.720;9.158;2022-10-26T09:23:28;3.53;;;2.70;;
1589;SDS011;788;48.720;9.158;2022-10-26T09:26:08;3.23;;;2.67;;
1589;SDS011;788;48.720;9.158;2022-10-26T09:28:39;3.00;;;2.70;;
1589;SDS011;788;48.720;9.158;2022-10-26T09:31:12;3.80;;;2.73;;
1589;SDS011;788;48.720;9.158;2022-10-26T09:33:42;3.03;;;2.87;;
1589;SDS011;788;48.720;9.158;2022-10-26T09:36:09;3.57;;;2.73;;
1589;SDS011;788;48.720;9.158;2022-10-26T09:38:41;3.47;;;2.37;;
1589;SDS011;788;48.720;9.158;2022-10-26T09:41:19;4.77;;;2.67;;
1589;SDS011;788;48.720;9.158;2022-10-26T09:43:49;3.23;;;2.57;;
1589;SDS011;788;48.720;9.158;2022-10-26T09:46:24;3.93;;;3.63;;
1589;SDS011;788;48.720;9.158;2022-10-26T09:48:55;3.30;;;2.70;;
1589;SDS011;788;48.720;9.158;2022-10-26T09:51:29;3.20;;;2.50;;
1589;SDS011;788;48.720;9.158;2022-10-26T09:53:57;1.90;;;1.80;;
1589;SDS011;788;48.720;9.158;2022-10-26T09:56:27;4.37;;;2.50;;
1589;SDS011;788;48.720;9.158;2022-10-26T09:58:57;3.67;;;2.50;;
1589;SDS011;788;48.720;9.158;2022-10-26T10:01:33;2.63;;;2.43;;
1589;SDS011;788;48.720;9.158;2022-10-26T10:04:08;4.00;;;2.83;;
1589;SDS011;788;48.720;9.158;2022-10-26T10:06:44;3.67;;;2.60;;
1589;SDS011;788;48.720;9.158;2022-10-26T10:09:13;6.37;;;2.87;;
1589;SDS011;788;48.720;9.158;2022-10-26T10:11:47;3.33;;;2.43;;
1589;SDS011;788;48.720;9.158;2022-10-26T10:14:21;4.13;;;2.40;;
1589;SDS011;788;48.720;9.158;2022-10-26T10:16:54;3.20;;;2.47;;
1589;SDS011;788;48.720;9.158;2022-10-26T10:19:23;5.20;;;2.60;;
1589;SDS011;788;48.720;9.158;2022-10-26T10:21:53;2.80;;;1.73;;
1589;SDS011;788;48.720;9.158;2022-10-26T10:24:24;3.20;;;2.90;;
1589;SDS011;788;48.720;9.158;2022-10-26T10:26:55;3.40;;;2.30;;
1589;SDS011;788;48.720;9.158;2022-10-26T10:29:24;3.63;;;2.30;;
1589;SDS011;788;48.720;9.158;2022-10-26T10:31:58;4.10;;;2.40;;
1589;SDS011;788;48.720;9.158;2022-10-26T10:34:26;2.87;;;2.47;;
1589;SDS011;788;48.720;9.158;2022-10-26T10:36:55;3.90;;;1.60;;
1589;SDS011;788;48.720;9.158;2022-10-26T10:39:37;2.43;;;1.97;;
1589;SDS011;788;48.720;9.158;2022-10-26T10:42:10;3.77;;;2.23;;
1589;SDS011;788;48.720;9.158;2022-10-26T10:44:41;6.30;;;2.13;;
1589;SDS011;788;48.720;9.158;2022-10-26T10:47:17;6.43;;;2.17;;
1589;SDS011;788;48.720;9.158;2022-10-26T10:49:51;2.30;;;1.70;;
1589;SDS011;788;48.720;9.158;2022-10-26T10:52:21;3.67;;;2.63;;
1589;SDS011;788;48.720;9.158;2022-10-26T10:54:52;2.40;;;2.20;;
1589;SDS011;788;48.720;9.158;2022-10-26T10:57:29;3.67;;;2.30;;
1589;SDS011;788;48.720;9.158;2022-10-26T11:00:05;2.83;;;2.63;;
1589;SDS011;788;48.720;9.158;2022-10-26T11:03:00;3.43;;;2.70;;
1589;SDS011;788;48.720;9.158;2022-10-26T11:05:47;3.90;;;3.00;;
1589;SDS011;788;48.720;9.158;2022-10-26T11:08:29;2.07;;;1.63;;
1589;SDS011;788;48.720;9.158;2022-10-26T11:11:01;2.83;;;2.30;;
1589;SDS011;788;48.720;9.158;2022-10-26T11:13:33;3.97;;;2.77;;
1589;SDS011;788;48.720;9.158;2022-10-26T11:16:04;3.07;;;2.40;;
1589;SDS011;788;48.720;9.158;2022-10-26T11:18:38;3.00;;;2.70;;
1589;SDS011;788;48.720;9.158;2022-10-26T11:21:12;3.00;;;2.27;;
1589;SDS011;788;48.720;9.158;2022-10-26T11:23:45;4.53;;;2.73;;
1589;SDS011;788;48.720;9.158;2022-10-26T11:26:16;3.33;;;2.70;;
1589;SDS011;788;48.720;9.158;2022-10-26T11:28:50;7.47;;;3.63;;
1589;SDS011;788;48.720;9.158;2022-10-26T11:31:22;3.33;;;3.03;;
1589;SDS011;788;48.720;9.158;2022-10-26T11:34:04;3.33;;;2.50;;
1589;SDS011;788;48.720;9.158;2022-10-26T11:36:37;3.33;;;2.07;;
1589;SDS011;788;48.720;9.158;2022-10-26T11:39:09;1.70;;;1.53;;
1589;SDS011;788;48.720;9.158;2022-10-26T11:41:46;3.00;;;1.90;;
1589;SDS011;788;48.720;9.158;2022-10-26T11:44:21;2.60;;;1.93;;
1589;SDS011;788;48.720;9.158;2022-10-26T11:46:54;4.70;;;2.00;;
1589;SDS011;788;48.720;9.158;2022-10-26T11:49:28;3.70;;;2.13;;
1589;SDS011;788;48.720;9.158;2022-10-26T11:52:04;3.70;;;3.07;;
1589;SDS011;788;48.720;9.158;2022-10-26T11:54:39;3.10;;;1.90;;
1589;SDS011;788;48.720;9.158;2022-10-26T11:57:11;2.27;;;1.60;;
1589;SDS011;788;48.720;9.158;2022-10-26T11:59:42;3.63;;;2.10;;
1589;SDS011;788;48.720;9.158;2022-10-26T12:02:13;7.93;;;3.30;;
1589;SDS011;788;48.720;9.158;2022-10-26T12:04:45;5.50;;;2.13;;
1589;SDS011;788;48.720;9.158;2022-10-26T12:07:19;4.27;;;2.07;;
1589;SDS011;788;48.720;9.158;2022-10-26T12:09:49;3.10;;;1.90;;
1589;SDS011;788;48.720;9.158;2022-10-26T12:12:19;4.50;;;2.03;;
1589;SDS011;788;48.720;9.158;2022-10-26T12:14:53;1.60;;;1.40;;
1589;SDS011;788;48.720;9.158;2022-10-26T12:17:25;2.83;;;2.00;;
1589;SDS011;788;48.720;9.158;2022-10-26T12:19:59;3.80;;;1.70;;
1589;SDS011;788;48.720;9.158;2022-10-26T12:22:36;4.80;;;2.07;;
1589;SDS011;788;48.720;9.158;2022-10-26T12:25:07;3.07;;;2.17;;
1589;SDS011;788;48.720;9.158;2022-10-26T12:27:49;3.47;;;2.23;;
1589;SDS011;788;48.720;9.158;2022-10-26T12:30:23;2.13;;;1.93;;
1589;SDS011;788;48.720;9.158;2022-10-26T12:32:55;3.33;;;3.13;;
1589;SDS011;788;48.720;9.158;2022-10-26T12:35:29;3.30;;;1.90;;
1589;SDS011;788;48.720;9.158;2022-10-26T12:38:01;3.20;;;2.50;;
1589;SDS011;788;48.720;9.158;2022-10-26T12:41:19;5.37;;;2.20;;
1589;SDS011;788;48.720;9.158;2022-10-26T12:52:24;2.37;;;2.17;;
1589;SDS011;788;48.720;9.158;2022-10-26T12:55:12;2.70;;;1.97;;
1589;SDS011;788;48.720;9.158;2022-10-26T12:58:04;5.60;;;3.40;;
1589;SDS011;788;48.720;9.158;2022-10-26T13:00:50;3.13;;;2.10;;
1589;SDS011;788;48.720;9.158;2022-10-26T13:03:38;2.60;;;2.27;;
1589;SDS011;788;48.720;9.158;2022-10-26T13:06:16;3.70;;;2.67;;
1589;SDS011;788;48.720;9.158;2022-10-26T13:08:56;3.40;;;2.47;;
1589;SDS011;788;48.720;9.158;2022-10-26T13:11:24;5.33;;;1.90;;
1589;SDS011;788;48.720;9.158;2022-10-26T13:13:55;2.40;;;2.20;;
1589;SDS011;788;48.720;9.158;2022-10-26T13:16:24;4.30;;;2.53;;
1589;SDS011;788;48.720;9.158;2022-10-26T13:18:53;3.00;;;2.03;;
1589;SDS011;788;48.720;9.158;2022-10-26T13:21:21;3.53;;;2.20;;
1589;SDS011;788;48.720;9.158;2022-10-26T13:23:56;2.67;;;1.80;;
1589;SDS011;788;48.720;9.158;2022-10-26T13:26:26;5.27;;;2.57;;
1589;SDS011;788;48.720;9.158;2022-10-26T13:28:55;5.40;;;1.97;;
1589;SDS011;788;48.720;9.158;2022-10-26T13:34:19;5.27;;;2.13;;
1589;SDS011;788;48.720;9.158;2022-10-26T13:36:49;3.33;;;1.63;;
1589;SDS011;788;48.720;9.158;2022-10-26T13:39:20;3.20;;;2.47;;
1589;SDS011;788;48.720;9.158;2022-10-26T13:41:49;5.73;;;3.33;;
1589;SDS011;788;48.720;9.158;2022-10-26T13:44:20;2.60;;;1.73;;
1589;SDS011;788;48.720;9.158;2022-10-26T13:47:01;5.00;;;2.90;;
1589;SDS011;788;48.720;9.158;2022-10-26T13:49:32;3.70;;;1.60;;
1589;SDS011;788;48.720;9.158;2022-10-26T13:52:03;5.50;;;2.27;;
1589;SDS011;788;48.720;9.158;2022-10-26T13:54:41;2.70;;;1.83;;
1589;SDS011;788;48.720;9.158;2022-10-26T13:57:12;3.30;;;1.73;;
1589;SDS011;788;48.720;9.158;2022-10-26T13:59:44;3.70;;;2.20;;
1589;SDS011;788;48.720;9.158;2022-10-26T14:02:16;3.73;;;2.27;;
1589;SDS011;788;48.720;9.158;2022-10-26T14:04:45;4.80;;;2.90;;
1589;SDS011;788;48.720;9.158;2022-10-26T14:07:23;4.37;;;2.10;;
1589;SDS011;788;48.720;9.158;2022-10-26T14:09:56;3.87;;;2.57;;
1589;SDS011;788;48.720;9.158;2022-10-26T14:12:23;3.37;;;2.33;;
1589;SDS011;788;48.720;9.158;2022-10-26T14:14:53;3.60;;;2.23;;
1589;SDS011;788;48.720;9.158;2022-10-26T14:17:25;2.97;;;2.73;;
1589;SDS011;788;48.720;9.158;2022-10-26T14:19:51;4.80;;;2.13;;
1589;SDS011;788;48.720;9.158;2022-10-26T14:22:20;2.30;;;2.10;;
1589;SDS011;788;48.720;9.158;2022-10-26T14:24:51;8.67;;;1.93;;
1589;SDS011;788;48.720;9.158;2022-10-26T14:27:21;3.33;;;2.00;;
1589;SDS011;788;48.720;9.158;2022-10-26T14:29:49;2.97;;;2.30;;
1589;SDS011;788;48.720;9.158;2022-10-26T14:32:25;4.23;;;2.00;;
1589;SDS011;788;48.720;9.158;2022-10-26T14:34:54;2.50;;;2.10;;
1589;SDS011;788;48.720;9.158;2022-10-26T14:37:36;3.43;;;2.37;;
1589;SDS011;788;48.720;9.158;2022-10-26T14:40:11;3.10;;;2.37;;
1589;SDS011;788;48.720;9.158;2022-10-26T14:42:46;4.90;;;2.10;;
1589;SDS011;788;48.720;9.158;2022-10-26T14:45:22;2.97;;;2.07;;
1589;SDS011;788;48.720;9.158;2022-10-26T14:47:53;6.00;;;3.03;;
1589;SDS011;788;48.720;9.158;2022-10-26T14:50:21;3.53;;;3.03;;
1589;SDS011;788;48.720;9.158;2022-10-26T14:52:51;6.90;;;4.03;;
1589;SDS011;788;48.720;9.158;2022-10-26T14:55:21;3.00;;;2.53;;
1589;SDS011;788;48.720;9.158;2022-10-26T14:57:51;5.80;;;3.33;;
1589;SDS011;788;48.720;9.158;2022-10-26T15:00:31;4.23;;;2.43;;
1589;SDS011;788;48.720;9.158;2022-10-26T15:02:59;3.67;;;1.93;;
1589;SDS011;788;48.720;9.158;2022-10-26T15:05:26;4.23;;;2.70;;
1589;SDS011;788;48.720;9.158;2022-10-26T15:07:56;3.53;;;1.83;;
1589;SDS011;788;48.720;9.158;2022-10-26T15:13:21;3.73;;;3.30;;
1589;SDS011;788;48.720;9.158;2022-10-26T15:15:53;3.20;;;2.70;;
1589;SDS011;788;48.720;9.158;2022-10-26T15:18:24;2.67;;;2.43;;
1589;SDS011;788;48.720;9.158;2022-10-26T15:20:53;4.47;;;2.40;;
1589;SDS011;788;48.720;9.158;2022-10-26T15:23:21;4.67;;;2.20;;
1589;SDS011;788;48.720;9.158;2022-10-26T15:25:50;1.60;;;1.50;;
1589;SDS011;788;48.720;9.158;2022-10-26T15:28:22;2.63;;;2.33;;
1589;SDS011;788;48.720;9.158;2022-10-26T15:30:57;6.67;;;2.80;;
1589;SDS011;788;48.720;9.158;2022-10-26T15:33:28;2.33;;;2.13;;
1589;SDS011;788;48.720;9.158;2022-10-26T15:36:08;4.27;;;2.70;;
1589;SDS011;788;48.720;9.158;2022-10-26T15:38:37;3.90;;;1.80;;
1589;SDS011;788;48.720;9.158;2022-10-26T15:44:39;5.83;;;2.47;;
1589;SDS011;788;48.720;9.158;2022-10-26T15:47:18;6.50;;;2.43;;
1589;SDS011;788;48.720;9.158;2022-10-26T15:49:54;1.87;;;1.77;;
1589;SDS011;788;48.720;9.158;2022-10-26T15:52:21;4.40;;;2.17;;
1589;SDS011;788;48.720;9.158;2022-10-26T15:54:47;3.50;;;2.80;;
1589;SDS011;788;48.720;9.158;2022-10-26T15:57:14;3.73;;;2.37;;
1589;SDS011;788;48.720;9.158;2022-10-26T15:59:42;3.33;;;2.53;;
1589;SDS011;788;48.720;9.158;2022-10-26T16:02:12;4.40;;;2.93;;
1589;SDS011;788;48.720;9.158;2022-10-26T16:04:40;4.03;;;3.03;;
1589;SDS011;788;48.720;9.158;2022-10-26T16:07:08;4.17;;;3.77;;
1589;SDS011;788;48.720;9.158;2022-10-26T16:09:38;3.43;;;3.13;;
1589;SDS011;788;48.720;9.158;2022-10-26T16:12:07;3.70;;;3.40;;
1589;SDS011;788;48.720;9.158;2022-10-26T16:14:35;4.07;;;3.67;;
1589;SDS011;788;48.720;9.158;2022-10-26T16:17:03;5.30;;;3.00;;
1589;SDS011;788;48.720;9.158;2022-10-26T16:19:30;5.83;;;3.30;;
1589;SDS011;788;48.720;9.158;2022-10-26T16:21:58;5.03;;;3.53;;
1589;SDS011;788;48.720;9.158;2022-10-26T16:24:25;3.70;;;2.80;;
1589;SDS011;788;48.720;9.158;2022-10-26T16:26:53;5.13;;;3.10;;
1589;SDS011;788;48.720;9.158;2022-10-26T16:29:20;4.90;;;3.30;;
1589;SDS011;788;48.720;9.158;2022-10-26T16:31:47;5.60;;;3.70;;
1589;SDS011;788;48.720;9.158;2022-10-26T16:34:15;5.13;;;3.30;;
1589;SDS011;788;48.720;9.158;2022-10-26T16:36:42;5.47;;;4.20;;
1589;SDS011;788;48.720;9.158;2022-10-26T16:39:10;4.70;;;4.30;;
1589;SDS011;788;48.720;9.158;2022-10-26T16:41:48;6.30;;;4.50;;
1589;SDS011;788;48.720;9.158;2022-10-26T16:44:15;9.20;;;5.83;;
1589;SDS011;788;48.720;9.158;2022-10-26T16:46:42;7.20;;;5.13;;
1589;SDS011;788;48.720;9.158;2022-10-26T16:49:09;10.50;;;6.33;;
1589;SDS011;788;48.720;9.158;2022-10-26T16:51:37;6.57;;;4.40;;
1589;SDS011;788;48.720;9.158;2022-10-26T17:03:41;9.77;;;4.87;;
1589;SDS011;788;48.720;9.158;2022-10-26T17:05:42;7.20;;;6.60;;
1589;SDS011;788;48.720;9.158;2022-10-26T17:08:34;5.00;;;4.60;;
1589;SDS011;788;48.720;9.158;2022-10-26T17:11:04;4.13;;;3.83;;
1589;SDS011;788;48.720;9.158;2022-10-26T17:13:32;5.40;;;4.50;;
1589;SDS011;788;48.720;9.158;2022-10-26T17:16:02;5.77;;;4.50;;
1589;SDS011;788;48.720;9.158;2022-10-26T17:18:30;5.77;;;4.27;;
1589;SDS011;788;48.720;9.158;2022-10-26T17:20:58;9.70;;;5.63;;
1589;SDS011;788;48.720;9.158;2022-10-26T17:23:24;6.43;;;4.60;;
1589;SDS011;788;48.720;9.158;2022-10-26T17:25:53;9.40;;;5.33;;
1589;SDS011;788;48.720;9.158;2022-10-26T17:28:19;6.40;;;4.80;;
1589;SDS011;788;48.720;9.158;2022-10-26T17:30:47;8.07;;;5.73;;
1589;SDS011;788;48.720;9.158;2022-10-26T17:33:14;10.43;;;5.73;;